EVA116 RCTP-RJCC
Flight info
| Callsign | EVA116 |
|---|---|
| Flight time | N/A |
| Altitude | 37000 |
| Route | MOLKA1A MOLKA M750 MOMPA Y451 HKC Y45 MARCO Y141 SAMON Y14 GOLDO Y19 MRE Y13 SIRAO Y139 NAVER |
| Aircraft | B78X/H-SDE1E2E3FGHIJ2J3J4J5M1RWXY/LB1D1 |
Departure
| Time | N/A |
|---|---|
| Airport | Taiwan Taoyuan International Airport (RCTP) |
Arrival
| Time | 2026-02-21 06:17 |
|---|---|
| Airport | New Chitose Airport (RJCC) |
| Time | Latitude | Longitude | Altitude | Speed | Heading |
|---|---|---|---|---|---|
| 2026-02-21 03:31 | 25.30622 | 121.62413 | 17676 ft | 424 kts | 77° |
| 2026-02-21 03:31 | 25.31299 | 121.65617 | 18432 ft | 432 kts | 72° |
| 2026-02-21 03:32 | 25.32592 | 121.68618 | 19119 ft | 435 kts | 54° |
| 2026-02-21 03:32 | 25.34282 | 121.71364 | 19783 ft | 442 kts | 50° |
| 2026-02-21 03:32 | 25.36116 | 121.74124 | 20472 ft | 449 kts | 50° |
| 2026-02-21 03:32 | 25.37877 | 121.77018 | 21168 ft | 458 kts | 54° |
| 2026-02-21 03:33 | 25.39558 | 121.80049 | 21832 ft | 466 kts | 54° |
| 2026-02-21 03:33 | 25.41302 | 121.83097 | 22478 ft | 472 kts | 52° |
| 2026-02-21 03:33 | 25.43136 | 121.86135 | 23137 ft | 479 kts | 51° |
| 2026-02-21 03:33 | 25.44987 | 121.89230 | 23761 ft | 485 kts | 52° |
| 2026-02-21 03:34 | 25.46824 | 121.92398 | 24284 ft | 492 kts | 53° |
| 2026-02-21 03:34 | 25.48680 | 121.95604 | 24801 ft | 497 kts | 52° |
| 2026-02-21 03:34 | 25.50577 | 121.98829 | 25309 ft | 503 kts | 52° |
| 2026-02-21 03:34 | 25.52501 | 122.02089 | 25812 ft | 509 kts | 52° |
| 2026-02-21 03:35 | 25.54433 | 122.05396 | 26318 ft | 515 kts | 52° |
| 2026-02-21 03:35 | 25.56384 | 122.08749 | 26802 ft | 521 kts | 52° |
| 2026-02-21 03:35 | 25.58361 | 122.12133 | 27301 ft | 526 kts | 52° |
| 2026-02-21 03:35 | 25.60363 | 122.15553 | 27795 ft | 532 kts | 52° |
| 2026-02-21 03:36 | 25.62382 | 122.19013 | 28319 ft | 538 kts | 52° |
| 2026-02-21 03:36 | 25.64420 | 122.22515 | 28793 ft | 543 kts | 52° |
| 2026-02-21 03:36 | 25.66480 | 122.26052 | 29267 ft | 549 kts | 52° |
| 2026-02-21 03:36 | 25.68561 | 122.29625 | 29726 ft | 555 kts | 52° |
| 2026-02-21 03:37 | 25.70664 | 122.33239 | 30166 ft | 560 kts | 52° |
| 2026-02-21 03:37 | 25.72754 | 122.36837 | 30536 ft | 565 kts | 52° |
| 2026-02-21 03:37 | 25.74888 | 122.40514 | 30934 ft | 569 kts | 52° |
| 2026-02-21 03:37 | 25.77064 | 122.44266 | 31334 ft | 573 kts | 52° |
| 2026-02-21 03:38 | 25.79197 | 122.47944 | 31726 ft | 576 kts | 52° |
| 2026-02-21 03:38 | 25.81371 | 122.51698 | 32171 ft | 580 kts | 52° |
| 2026-02-21 03:38 | 25.83560 | 122.55480 | 32532 ft | 585 kts | 52° |
| 2026-02-21 03:38 | 25.85764 | 122.59289 | 32899 ft | 588 kts | 52° |
| 2026-02-21 03:39 | 25.87984 | 122.63131 | 33247 ft | 592 kts | 53° |
| 2026-02-21 03:39 | 25.92443 | 122.70863 | 34146 ft | 594 kts | 53° |
| 2026-02-21 03:39 | 25.94669 | 122.74727 | 34644 ft | 593 kts | 53° |
| 2026-02-21 03:40 | 25.96888 | 122.78578 | 35133 ft | 592 kts | 53° |
| 2026-02-21 03:40 | 25.99105 | 122.82428 | 35663 ft | 591 kts | 53° |
| 2026-02-21 03:40 | 26.01317 | 122.86276 | 36088 ft | 591 kts | 53° |
| 2026-02-21 03:40 | 26.03526 | 122.90124 | 36509 ft | 590 kts | 53° |
| 2026-02-21 03:41 | 26.05735 | 122.93972 | 36930 ft | 591 kts | 53° |
| 2026-02-21 03:41 | 26.10142 | 123.01662 | 37022 ft | 584 kts | 53° |
| 2026-02-21 03:42 | 26.14522 | 123.09310 | 37030 ft | 586 kts | 53° |
| 2026-02-21 03:42 | 26.18900 | 123.16975 | 37034 ft | 587 kts | 53° |
| 2026-02-21 03:43 | 26.23252 | 123.24605 | 37028 ft | 588 kts | 53° |
| 2026-02-21 03:43 | 26.27628 | 123.32290 | 37033 ft | 587 kts | 53° |
| 2026-02-21 03:44 | 26.31998 | 123.39976 | 37029 ft | 587 kts | 53° |
| 2026-02-21 03:44 | 26.36367 | 123.47676 | 37040 ft | 588 kts | 53° |
| 2026-02-21 03:45 | 26.40738 | 123.55390 | 37045 ft | 588 kts | 53° |
| 2026-02-21 03:45 | 26.45104 | 123.63111 | 37045 ft | 589 kts | 53° |
| 2026-02-21 03:46 | 26.49474 | 123.70850 | 37032 ft | 589 kts | 53° |
| 2026-02-21 03:46 | 26.53835 | 123.78589 | 37049 ft | 589 kts | 53° |
| 2026-02-21 03:47 | 26.58198 | 123.86341 | 37047 ft | 590 kts | 53° |
| 2026-02-21 03:47 | 26.62564 | 123.94114 | 37051 ft | 590 kts | 53° |
| 2026-02-21 03:48 | 26.67130 | 124.01687 | 37075 ft | 581 kts | 43° |
| 2026-02-21 03:48 | 26.72314 | 124.08633 | 37060 ft | 581 kts | 43° |
| 2026-02-21 03:49 | 26.77507 | 124.15575 | 37058 ft | 582 kts | 44° |
| 2026-02-21 03:49 | 26.82682 | 124.22532 | 37051 ft | 581 kts | 43° |
| 2026-02-21 03:50 | 26.87862 | 124.29483 | 37083 ft | 581 kts | 43° |
| 2026-02-21 03:50 | 26.93036 | 124.36455 | 37057 ft | 581 kts | 43° |
| 2026-02-21 03:51 | 26.98207 | 124.43420 | 37055 ft | 582 kts | 43° |
| 2026-02-21 03:51 | 27.03350 | 124.50362 | 37051 ft | 583 kts | 43° |
| 2026-02-21 03:52 | 27.08539 | 124.57372 | 37058 ft | 584 kts | 43° |
| 2026-02-21 03:52 | 27.13710 | 124.64374 | 37056 ft | 582 kts | 43° |
| 2026-02-21 03:53 | 27.18879 | 124.71378 | 37058 ft | 582 kts | 43° |
| 2026-02-21 03:53 | 27.24040 | 124.78387 | 37089 ft | 583 kts | 43° |
| 2026-02-21 03:54 | 27.29207 | 124.85413 | 37062 ft | 583 kts | 43° |
| 2026-02-21 03:54 | 27.34372 | 124.92450 | 37060 ft | 583 kts | 43° |
| 2026-02-21 03:55 | 27.39535 | 124.99493 | 37056 ft | 583 kts | 43° |
| 2026-02-21 03:55 | 27.44731 | 125.06508 | 37068 ft | 583 kts | 42° |
| 2026-02-21 03:56 | 27.49940 | 125.13525 | 37069 ft | 583 kts | 43° |
| 2026-02-21 03:56 | 27.55125 | 125.20550 | 37068 ft | 583 kts | 43° |
| 2026-02-21 03:57 | 27.60312 | 125.27564 | 37078 ft | 583 kts | 43° |
| 2026-02-21 03:57 | 27.65496 | 125.34604 | 37070 ft | 582 kts | 43° |
| 2026-02-21 03:58 | 27.69807 | 125.40454 | 37066 ft | 584 kts | 43° |
| 2026-02-21 03:58 | 27.74994 | 125.47515 | 37068 ft | 585 kts | 43° |
| 2026-02-21 03:59 | 27.80187 | 125.54591 | 37061 ft | 585 kts | 43° |
| 2026-02-21 03:59 | 27.85370 | 125.61666 | 37062 ft | 584 kts | 43° |
| 2026-02-21 04:00 | 27.90544 | 125.68740 | 37062 ft | 584 kts | 43° |
| 2026-02-21 04:00 | 27.95718 | 125.75826 | 37047 ft | 585 kts | 43° |
| 2026-02-21 04:01 | 28.00892 | 125.82927 | 37059 ft | 584 kts | 43° |
| 2026-02-21 04:01 | 28.06059 | 125.90026 | 37060 ft | 584 kts | 43° |
| 2026-02-21 04:02 | 28.11185 | 125.97082 | 37104 ft | 584 kts | 43° |
| 2026-02-21 04:02 | 28.16347 | 126.04198 | 37061 ft | 584 kts | 43° |
| 2026-02-21 04:03 | 28.21501 | 126.11316 | 37062 ft | 584 kts | 43° |
| 2026-02-21 04:03 | 28.26660 | 126.18452 | 37063 ft | 586 kts | 43° |
| 2026-02-21 04:04 | 28.31829 | 126.25616 | 37041 ft | 586 kts | 43° |
| 2026-02-21 04:04 | 28.36983 | 126.32771 | 37056 ft | 586 kts | 43° |
| 2026-02-21 04:05 | 28.42139 | 126.39938 | 37058 ft | 586 kts | 43° |
| 2026-02-21 04:05 | 28.47288 | 126.47112 | 37062 ft | 586 kts | 43° |
| 2026-02-21 04:06 | 28.52436 | 126.54293 | 37061 ft | 586 kts | 43° |
| 2026-02-21 04:06 | 28.57581 | 126.61484 | 37062 ft | 586 kts | 43° |
| 2026-02-21 04:07 | 28.62723 | 126.68683 | 37074 ft | 586 kts | 43° |
| 2026-02-21 04:07 | 28.67858 | 126.75885 | 37058 ft | 585 kts | 43° |
| 2026-02-21 04:08 | 28.72980 | 126.83079 | 37058 ft | 585 kts | 43° |
| 2026-02-21 04:08 | 28.78106 | 126.90291 | 37095 ft | 586 kts | 43° |
| 2026-02-21 04:09 | 28.83232 | 126.97519 | 37080 ft | 586 kts | 43° |
| 2026-02-21 04:09 | 28.88321 | 127.04704 | 37071 ft | 586 kts | 43° |
| 2026-02-21 04:10 | 28.93438 | 127.11943 | 37073 ft | 586 kts | 43° |
| 2026-02-21 04:10 | 28.98557 | 127.19196 | 37073 ft | 586 kts | 43° |
| 2026-02-21 04:11 | 29.03666 | 127.26450 | 37071 ft | 585 kts | 43° |
| 2026-02-21 04:11 | 29.08764 | 127.33697 | 37073 ft | 585 kts | 43° |
| 2026-02-21 04:12 | 29.13866 | 127.40966 | 37085 ft | 587 kts | 43° |
| 2026-02-21 04:12 | 29.18975 | 127.48256 | 37070 ft | 587 kts | 43° |
| 2026-02-21 04:13 | 29.24073 | 127.55546 | 37076 ft | 586 kts | 43° |
| 2026-02-21 04:13 | 29.29174 | 127.62848 | 37091 ft | 588 kts | 43° |
| 2026-02-21 04:14 | 29.34276 | 127.70170 | 37089 ft | 588 kts | 43° |
| 2026-02-21 04:14 | 29.39372 | 127.77494 | 37082 ft | 586 kts | 43° |
| 2026-02-21 04:15 | 29.44457 | 127.84812 | 37096 ft | 588 kts | 43° |
| 2026-02-21 04:15 | 29.49518 | 127.92115 | 37096 ft | 589 kts | 43° |
| 2026-02-21 04:16 | 29.54608 | 127.99468 | 37088 ft | 587 kts | 43° |
| 2026-02-21 04:16 | 29.59698 | 128.06822 | 37095 ft | 589 kts | 43° |
| 2026-02-21 04:17 | 29.64789 | 128.14200 | 37099 ft | 589 kts | 43° |
| 2026-02-21 04:17 | 29.69873 | 128.21576 | 37089 ft | 588 kts | 43° |
| 2026-02-21 04:18 | 29.74094 | 128.27713 | 37103 ft | 588 kts | 43° |
| 2026-02-21 04:19 | 29.85105 | 128.43762 | 37103 ft | 589 kts | 43° |
| 2026-02-21 04:19 | 29.90178 | 128.51178 | 37100 ft | 588 kts | 43° |
| 2026-02-21 04:20 | 29.95243 | 128.58596 | 37098 ft | 588 kts | 43° |
| 2026-02-21 04:20 | 30.00297 | 128.66010 | 37082 ft | 588 kts | 43° |
| 2026-02-21 04:21 | 30.05307 | 128.73374 | 37096 ft | 588 kts | 43° |
| 2026-02-21 04:21 | 30.10355 | 128.80807 | 37103 ft | 589 kts | 43° |
| 2026-02-21 04:22 | 30.15402 | 128.88256 | 37097 ft | 588 kts | 43° |
| 2026-02-21 04:22 | 30.20440 | 128.95700 | 37110 ft | 587 kts | 43° |
| 2026-02-21 04:23 | 30.25466 | 129.03144 | 37111 ft | 587 kts | 43° |
| 2026-02-21 04:23 | 30.30486 | 129.10591 | 37109 ft | 587 kts | 43° |
| 2026-02-21 04:24 | 30.35501 | 129.18047 | 37110 ft | 586 kts | 43° |
| 2026-02-21 04:24 | 30.40509 | 129.25503 | 37114 ft | 587 kts | 43° |
| 2026-02-21 04:25 | 30.45522 | 129.32984 | 37142 ft | 588 kts | 43° |
| 2026-02-21 04:25 | 30.50520 | 129.40459 | 37106 ft | 586 kts | 43° |
| 2026-02-21 04:26 | 30.55523 | 129.47944 | 37103 ft | 587 kts | 43° |
| 2026-02-21 04:26 | 30.60518 | 129.55444 | 37118 ft | 587 kts | 44° |
| 2026-02-21 04:27 | 30.65470 | 129.62888 | 37104 ft | 585 kts | 43° |
| 2026-02-21 04:27 | 30.70433 | 129.70363 | 37102 ft | 583 kts | 44° |
| 2026-02-21 04:28 | 30.75387 | 129.77837 | 37105 ft | 583 kts | 44° |
| 2026-02-21 04:28 | 30.80277 | 129.85230 | 37104 ft | 583 kts | 44° |
| 2026-02-21 04:29 | 30.85584 | 129.92165 | 37123 ft | 561 kts | 28° |
| 2026-02-21 04:29 | 30.88681 | 129.94830 | 37170 ft | 548 kts | 21° |
| 2026-02-21 04:29 | 30.91845 | 129.97303 | 37117 ft | 545 kts | 22° |
| 2026-02-21 04:30 | 30.98154 | 130.02184 | 37119 ft | 546 kts | 21° |
| 2026-02-21 04:30 | 31.04469 | 130.07101 | 37107 ft | 546 kts | 22° |
| 2026-02-21 04:31 | 31.10777 | 130.12011 | 37115 ft | 543 kts | 22° |
| 2026-02-21 04:31 | 31.17067 | 130.16912 | 37116 ft | 544 kts | 22° |
| 2026-02-21 04:32 | 31.23358 | 130.21827 | 37108 ft | 544 kts | 22° |
| 2026-02-21 04:32 | 31.29604 | 130.26716 | 37104 ft | 542 kts | 22° |
| 2026-02-21 04:33 | 31.35879 | 130.31631 | 37103 ft | 542 kts | 22° |
| 2026-02-21 04:33 | 31.42137 | 130.36543 | 37104 ft | 542 kts | 23° |
| 2026-02-21 04:34 | 31.48391 | 130.41459 | 37091 ft | 541 kts | 23° |
| 2026-02-21 04:34 | 31.54637 | 130.46378 | 37094 ft | 541 kts | 23° |
| 2026-02-21 04:35 | 31.60888 | 130.51307 | 37109 ft | 544 kts | 22° |
| 2026-02-21 04:35 | 31.67154 | 130.56261 | 37108 ft | 542 kts | 22° |
| 2026-02-21 04:36 | 31.73481 | 130.61003 | 37113 ft | 535 kts | 21° |
| 2026-02-21 04:36 | 31.79756 | 130.65593 | 37109 ft | 536 kts | 21° |
| 2026-02-21 04:37 | 31.86099 | 130.70202 | 37115 ft | 536 kts | 21° |
| 2026-02-21 04:37 | 31.92413 | 130.74819 | 37108 ft | 532 kts | 21° |
| 2026-02-21 04:38 | 31.98719 | 130.79419 | 37104 ft | 534 kts | 21° |
| 2026-02-21 04:38 | 32.05027 | 130.84043 | 37099 ft | 533 kts | 22° |
| 2026-02-21 04:39 | 32.11285 | 130.88631 | 37093 ft | 531 kts | 22° |
| 2026-02-21 04:39 | 32.17582 | 130.93207 | 37078 ft | 531 kts | 21° |
| 2026-02-21 04:40 | 32.23877 | 130.97725 | 37077 ft | 525 kts | 22° |
| 2026-02-21 04:40 | 32.30142 | 131.02264 | 37080 ft | 528 kts | 22° |
| 2026-02-21 04:41 | 32.36410 | 131.06797 | 37088 ft | 528 kts | 22° |
| 2026-02-21 04:41 | 32.42631 | 131.11318 | 37078 ft | 524 kts | 22° |
| 2026-02-21 04:42 | 32.48805 | 131.15924 | 37072 ft | 528 kts | 23° |
| 2026-02-21 04:42 | 32.55009 | 131.20529 | 37071 ft | 520 kts | 23° |
| 2026-02-21 04:43 | 32.61166 | 131.25111 | 37073 ft | 523 kts | 24° |
| 2026-02-21 04:43 | 32.67321 | 131.29707 | 37087 ft | 522 kts | 24° |
| 2026-02-21 04:44 | 32.73426 | 131.34266 | 37076 ft | 522 kts | 24° |
| 2026-02-21 04:44 | 32.79588 | 131.38879 | 37067 ft | 526 kts | 24° |
| 2026-02-21 04:45 | 32.85762 | 131.43475 | 37078 ft | 518 kts | 23° |
| 2026-02-21 04:45 | 32.91913 | 131.47974 | 37077 ft | 520 kts | 24° |
| 2026-02-21 04:46 | 32.98052 | 131.52536 | 37097 ft | 520 kts | 23° |
| 2026-02-21 04:46 | 33.04183 | 131.57064 | 37067 ft | 517 kts | 24° |
| 2026-02-21 04:47 | 33.13373 | 131.63883 | 37079 ft | 517 kts | 24° |
| 2026-02-21 04:47 | 33.19487 | 131.68422 | 37087 ft | 518 kts | 23° |
| 2026-02-21 04:48 | 33.24727 | 131.71700 | 37104 ft | 507 kts | 14° |
| 2026-02-21 04:48 | 33.31213 | 131.75024 | 37103 ft | 507 kts | 14° |
| 2026-02-21 04:49 | 33.37672 | 131.78339 | 37099 ft | 505 kts | 14° |
| 2026-02-21 04:49 | 33.44137 | 131.81665 | 37103 ft | 506 kts | 14° |
| 2026-02-21 04:50 | 33.50592 | 131.84990 | 37104 ft | 503 kts | 14° |
| 2026-02-21 04:50 | 33.58073 | 131.88848 | 37109 ft | 504 kts | 14° |
| 2026-02-21 04:51 | 33.63471 | 131.91639 | 37114 ft | 504 kts | 14° |
| 2026-02-21 04:51 | 33.69859 | 131.94947 | 37119 ft | 502 kts | 14° |
| 2026-02-21 04:52 | 33.76276 | 131.98272 | 37126 ft | 503 kts | 14° |
| 2026-02-21 04:52 | 33.82698 | 132.01598 | 37129 ft | 501 kts | 14° |
| 2026-02-21 04:53 | 33.89107 | 132.04912 | 37132 ft | 501 kts | 14° |
| 2026-02-21 04:53 | 33.95508 | 132.08237 | 37128 ft | 501 kts | 14° |
| 2026-02-21 04:54 | 34.01903 | 132.11572 | 37129 ft | 500 kts | 15° |
| 2026-02-21 04:54 | 34.08185 | 132.15280 | 37143 ft | 513 kts | 27° |
| 2026-02-21 04:55 | 34.13761 | 132.20817 | 37112 ft | 518 kts | 34° |
| 2026-02-21 04:55 | 34.19221 | 132.26599 | 37121 ft | 522 kts | 34° |
| 2026-02-21 04:56 | 34.24686 | 132.32352 | 37112 ft | 521 kts | 34° |
| 2026-02-21 04:56 | 34.30085 | 132.38069 | 37113 ft | 520 kts | 34° |
| 2026-02-21 04:57 | 34.35535 | 132.43837 | 37115 ft | 521 kts | 34° |
| 2026-02-21 04:57 | 34.40975 | 132.49610 | 37107 ft | 518 kts | 34° |
| 2026-02-21 04:58 | 34.46400 | 132.55372 | 37103 ft | 519 kts | 34° |
| 2026-02-21 04:58 | 34.51826 | 132.61148 | 37108 ft | 518 kts | 34° |
| 2026-02-21 04:59 | 34.57217 | 132.66900 | 37096 ft | 518 kts | 34° |
| 2026-02-21 04:59 | 34.62624 | 132.72674 | 37094 ft | 517 kts | 34° |
| 2026-02-21 05:00 | 34.68026 | 132.78457 | 37097 ft | 518 kts | 34° |
| 2026-02-21 05:00 | 34.73423 | 132.84243 | 37092 ft | 517 kts | 34° |
| 2026-02-21 05:01 | 34.78810 | 132.90031 | 37098 ft | 515 kts | 34° |
| 2026-02-21 05:01 | 34.84169 | 132.95796 | 37090 ft | 515 kts | 34° |
| 2026-02-21 05:02 | 34.89537 | 133.01583 | 37096 ft | 516 kts | 34° |
| 2026-02-21 05:02 | 34.94878 | 133.07351 | 37073 ft | 512 kts | 34° |
| 2026-02-21 05:03 | 35.00214 | 133.13117 | 37073 ft | 512 kts | 34° |
| 2026-02-21 05:03 | 35.05538 | 133.18887 | 37080 ft | 510 kts | 35° |
| 2026-02-21 05:04 | 35.10860 | 133.24657 | 37079 ft | 512 kts | 35° |
| 2026-02-21 05:04 | 35.16149 | 133.30410 | 37079 ft | 511 kts | 35° |
| 2026-02-21 05:05 | 35.21443 | 133.36175 | 37073 ft | 510 kts | 35° |
| 2026-02-21 05:05 | 35.26739 | 133.41952 | 37100 ft | 511 kts | 35° |
| 2026-02-21 05:06 | 35.32031 | 133.47739 | 37066 ft | 509 kts | 35° |
| 2026-02-21 05:06 | 35.37313 | 133.53520 | 37065 ft | 510 kts | 35° |
| 2026-02-21 05:07 | 35.42588 | 133.59310 | 37072 ft | 508 kts | 35° |
| 2026-02-21 05:07 | 35.47842 | 133.65083 | 37066 ft | 507 kts | 35° |
| 2026-02-21 05:08 | 35.53097 | 133.70869 | 37077 ft | 507 kts | 35° |
| 2026-02-21 05:08 | 35.58338 | 133.76652 | 37075 ft | 506 kts | 35° |
| 2026-02-21 05:09 | 35.63573 | 133.82436 | 37084 ft | 506 kts | 35° |
| 2026-02-21 05:09 | 35.68798 | 133.88223 | 37071 ft | 506 kts | 35° |
| 2026-02-21 05:10 | 35.74028 | 133.94022 | 37071 ft | 506 kts | 35° |
| 2026-02-21 05:10 | 35.79254 | 133.99832 | 37081 ft | 505 kts | 35° |
| 2026-02-21 05:11 | 35.84464 | 134.05630 | 37073 ft | 505 kts | 35° |
| 2026-02-21 05:11 | 35.89669 | 134.11436 | 37078 ft | 504 kts | 35° |
| 2026-02-21 05:12 | 35.94839 | 134.17212 | 37083 ft | 505 kts | 35° |
| 2026-02-21 05:12 | 36.00049 | 134.23046 | 37088 ft | 506 kts | 35° |
| 2026-02-21 05:13 | 36.05253 | 134.28884 | 37081 ft | 504 kts | 35° |
| 2026-02-21 05:13 | 36.10444 | 134.34714 | 37079 ft | 504 kts | 35° |
| 2026-02-21 05:14 | 36.15628 | 134.40553 | 37081 ft | 503 kts | 35° |
| 2026-02-21 05:14 | 36.20796 | 134.46381 | 37082 ft | 502 kts | 35° |
| 2026-02-21 05:15 | 36.25520 | 134.52843 | 37101 ft | 517 kts | 53° |
| 2026-02-21 05:15 | 36.29289 | 134.60429 | 37093 ft | 517 kts | 53° |
| 2026-02-21 05:16 | 36.33028 | 134.68053 | 37095 ft | 517 kts | 53° |
| 2026-02-21 05:16 | 36.36776 | 134.75660 | 37093 ft | 516 kts | 53° |
| 2026-02-21 05:17 | 36.40503 | 134.83274 | 37088 ft | 516 kts | 53° |
| 2026-02-21 05:17 | 36.44232 | 134.90887 | 37082 ft | 516 kts | 53° |
| 2026-02-21 05:18 | 36.47946 | 134.98501 | 37079 ft | 515 kts | 53° |
| 2026-02-21 05:18 | 36.51653 | 135.06110 | 37083 ft | 515 kts | 53° |
| 2026-02-21 05:19 | 36.55353 | 135.13726 | 37088 ft | 514 kts | 53° |
| 2026-02-21 05:19 | 36.59047 | 135.21343 | 37091 ft | 514 kts | 53° |
| 2026-02-21 05:20 | 36.62738 | 135.28974 | 37098 ft | 515 kts | 53° |
| 2026-02-21 05:20 | 36.66429 | 135.36623 | 37090 ft | 515 kts | 53° |
| 2026-02-21 05:21 | 36.70111 | 135.44269 | 37094 ft | 514 kts | 53° |
| 2026-02-21 05:21 | 36.73786 | 135.51918 | 37087 ft | 514 kts | 53° |
| 2026-02-21 05:22 | 36.77426 | 135.59514 | 37091 ft | 514 kts | 53° |
| 2026-02-21 05:22 | 36.81089 | 135.67172 | 37090 ft | 514 kts | 53° |
| 2026-02-21 05:23 | 36.84743 | 135.74832 | 37051 ft | 511 kts | 53° |
| 2026-02-21 05:23 | 36.86545 | 135.78621 | 36949 ft | 503 kts | 53° |
| 2026-02-21 05:23 | 36.88315 | 135.82346 | 36904 ft | 494 kts | 53° |
| 2026-02-21 05:24 | 36.91780 | 135.89631 | 36912 ft | 482 kts | 53° |
| 2026-02-21 05:24 | 36.93490 | 135.93233 | 37088 ft | 485 kts | 53° |
| 2026-02-21 05:24 | 36.95223 | 135.96886 | 37078 ft | 489 kts | 53° |
| 2026-02-21 05:25 | 36.98664 | 136.04178 | 37079 ft | 487 kts | 53° |
| 2026-02-21 05:25 | 37.02116 | 136.11484 | 37093 ft | 488 kts | 53° |
| 2026-02-21 05:26 | 37.05552 | 136.18787 | 37090 ft | 486 kts | 53° |
| 2026-02-21 05:27 | 37.10690 | 136.29727 | 37093 ft | 486 kts | 53° |
| 2026-02-21 05:27 | 37.14112 | 136.37035 | 37094 ft | 486 kts | 53° |
| 2026-02-21 05:28 | 37.17529 | 136.44349 | 37100 ft | 486 kts | 53° |
| 2026-02-21 05:28 | 37.20946 | 136.51681 | 37100 ft | 487 kts | 53° |
| 2026-02-21 05:29 | 37.24354 | 136.59009 | 37092 ft | 486 kts | 53° |
| 2026-02-21 05:29 | 37.27753 | 136.66331 | 37092 ft | 485 kts | 53° |
| 2026-02-21 05:30 | 37.31148 | 136.73663 | 37098 ft | 485 kts | 53° |
| 2026-02-21 05:30 | 37.34535 | 136.80994 | 37098 ft | 485 kts | 53° |
| 2026-02-21 05:31 | 37.37916 | 136.88328 | 37085 ft | 486 kts | 53° |
| 2026-02-21 05:31 | 37.41302 | 136.95691 | 37084 ft | 485 kts | 53° |
| 2026-02-21 05:32 | 37.44669 | 137.03028 | 37083 ft | 484 kts | 53° |
| 2026-02-21 05:32 | 37.48031 | 137.10369 | 37087 ft | 484 kts | 53° |
| 2026-02-21 05:33 | 37.51372 | 137.17684 | 37074 ft | 484 kts | 54° |
| 2026-02-21 05:33 | 37.54722 | 137.25032 | 37084 ft | 483 kts | 54° |
| 2026-02-21 05:34 | 37.58065 | 137.32382 | 37079 ft | 483 kts | 54° |
| 2026-02-21 05:34 | 37.61406 | 137.39744 | 37096 ft | 484 kts | 54° |
| 2026-02-21 05:35 | 37.64743 | 137.47117 | 37096 ft | 484 kts | 54° |
| 2026-02-21 05:35 | 37.68076 | 137.54494 | 37096 ft | 483 kts | 54° |
| 2026-02-21 05:36 | 37.71405 | 137.61881 | 37101 ft | 484 kts | 54° |
| 2026-02-21 05:36 | 37.74731 | 137.69278 | 37102 ft | 484 kts | 54° |
| 2026-02-21 05:37 | 37.78052 | 137.76679 | 37105 ft | 484 kts | 54° |
| 2026-02-21 05:37 | 37.80810 | 137.82840 | 37107 ft | 485 kts | 54° |
| 2026-02-21 05:38 | 37.84683 | 137.91512 | 37108 ft | 484 kts | 54° |
| 2026-02-21 05:38 | 37.87992 | 137.98937 | 37109 ft | 484 kts | 54° |
| 2026-02-21 05:39 | 37.91299 | 138.06379 | 37111 ft | 486 kts | 54° |
| 2026-02-21 05:39 | 37.94050 | 138.12580 | 37113 ft | 486 kts | 54° |
| 2026-02-21 05:40 | 37.97938 | 138.21353 | 37109 ft | 502 kts | 54° |
| 2026-02-21 05:40 | 38.00828 | 138.27906 | 37111 ft | 509 kts | 55° |
| 2026-02-21 05:41 | 38.04285 | 138.35753 | 37115 ft | 509 kts | 53° |
| 2026-02-21 05:41 | 38.06294 | 138.39389 | 37119 ft | 499 kts | 42° |
| 2026-02-21 05:41 | 38.08724 | 138.42469 | 37125 ft | 489 kts | 31° |
| 2026-02-21 05:42 | 38.14272 | 138.47278 | 37120 ft | 481 kts | 25° |
| 2026-02-21 05:42 | 38.19895 | 138.51878 | 37109 ft | 480 kts | 25° |
| 2026-02-21 05:43 | 38.25515 | 138.56492 | 37107 ft | 482 kts | 25° |
| 2026-02-21 05:43 | 38.31131 | 138.61115 | 37112 ft | 480 kts | 25° |
| 2026-02-21 05:44 | 38.36741 | 138.65735 | 37106 ft | 480 kts | 25° |
| 2026-02-21 05:44 | 38.42352 | 138.70371 | 37113 ft | 480 kts | 25° |
| 2026-02-21 05:45 | 38.47945 | 138.74996 | 37107 ft | 479 kts | 25° |
| 2026-02-21 05:45 | 38.53502 | 138.79602 | 37113 ft | 479 kts | 25° |
| 2026-02-21 05:46 | 38.59088 | 138.84241 | 37102 ft | 478 kts | 25° |
| 2026-02-21 05:46 | 38.64663 | 138.88877 | 37106 ft | 478 kts | 25° |
| 2026-02-21 05:47 | 38.70239 | 138.93525 | 37114 ft | 479 kts | 25° |
| 2026-02-21 05:47 | 38.75809 | 138.98178 | 37116 ft | 478 kts | 25° |
| 2026-02-21 05:48 | 38.81379 | 139.02836 | 37106 ft | 478 kts | 26° |
| 2026-02-21 05:48 | 38.86951 | 139.07508 | 37107 ft | 479 kts | 25° |
| 2026-02-21 05:49 | 38.92494 | 139.12164 | 37110 ft | 476 kts | 25° |
| 2026-02-21 05:49 | 38.98047 | 139.16834 | 37111 ft | 477 kts | 26° |
| 2026-02-21 05:50 | 39.03600 | 139.21517 | 37109 ft | 477 kts | 25° |
| 2026-02-21 05:50 | 39.09135 | 139.26191 | 37098 ft | 476 kts | 25° |
| 2026-02-21 05:51 | 39.14677 | 139.30880 | 37100 ft | 477 kts | 26° |
| 2026-02-21 05:51 | 39.20215 | 139.35576 | 37111 ft | 476 kts | 25° |
| 2026-02-21 05:52 | 39.25728 | 139.40259 | 37105 ft | 474 kts | 25° |
| 2026-02-21 05:52 | 39.34001 | 139.47304 | 37102 ft | 475 kts | 26° |
| 2026-02-21 05:53 | 39.39515 | 139.52009 | 37102 ft | 475 kts | 26° |
| 2026-02-21 05:53 | 39.44995 | 139.56696 | 37103 ft | 475 kts | 26° |
| 2026-02-21 05:54 | 39.50515 | 139.61426 | 37107 ft | 476 kts | 26° |
| 2026-02-21 05:54 | 39.56027 | 139.66159 | 37101 ft | 475 kts | 26° |
| 2026-02-21 05:55 | 39.61539 | 139.70899 | 37108 ft | 475 kts | 26° |
| 2026-02-21 05:55 | 39.67044 | 139.75644 | 37110 ft | 475 kts | 26° |
| 2026-02-21 05:56 | 39.72539 | 139.80390 | 37110 ft | 474 kts | 26° |
| 2026-02-21 05:56 | 39.78034 | 139.85143 | 37112 ft | 475 kts | 26° |
| 2026-02-21 05:57 | 39.83531 | 139.89918 | 37110 ft | 475 kts | 26° |
| 2026-02-21 05:57 | 39.88998 | 139.94744 | 37112 ft | 474 kts | 26° |
| 2026-02-21 05:58 | 39.94460 | 139.99539 | 37114 ft | 474 kts | 26° |
| 2026-02-21 05:58 | 39.99928 | 140.04366 | 37113 ft | 475 kts | 26° |
| 2026-02-21 05:59 | 40.05380 | 140.09182 | 37116 ft | 474 kts | 26° |
| 2026-02-21 05:59 | 40.10855 | 140.14029 | 37096 ft | 474 kts | 26° |
| 2026-02-21 06:00 | 40.16315 | 140.18873 | 37088 ft | 474 kts | 26° |
| 2026-02-21 06:00 | 40.21767 | 140.23719 | 37080 ft | 473 kts | 26° |
| 2026-02-21 06:01 | 40.27178 | 140.28537 | 37083 ft | 474 kts | 26° |
| 2026-02-21 06:01 | 40.32630 | 140.33403 | 37083 ft | 474 kts | 27° |
| 2026-02-21 06:02 | 40.38071 | 140.38268 | 37084 ft | 474 kts | 27° |
| 2026-02-21 06:02 | 40.43523 | 140.43152 | 37084 ft | 475 kts | 27° |
| 2026-02-21 06:03 | 40.48977 | 140.48049 | 37096 ft | 475 kts | 27° |
| 2026-02-21 06:03 | 40.54427 | 140.52951 | 37101 ft | 475 kts | 27° |
| 2026-02-21 06:04 | 40.59885 | 140.57870 | 37097 ft | 476 kts | 27° |
| 2026-02-21 06:04 | 40.65338 | 140.62795 | 37054 ft | 476 kts | 27° |
| 2026-02-21 06:05 | 40.70799 | 140.67737 | 37053 ft | 477 kts | 27° |
| 2026-02-21 06:05 | 40.74754 | 140.70871 | 37063 ft | 467 kts | 16° |
| 2026-02-21 06:05 | 40.86836 | 140.76865 | 36411 ft | 475 kts | 13° |
| 2026-02-21 06:06 | 40.99380 | 140.83074 | 33717 ft | 457 kts | 13° |
| 2026-02-21 06:06 | 41.10199 | 140.88424 | 31461 ft | 385 kts | 13° |
| 2026-02-21 06:06 | 41.20089 | 140.93332 | 29435 ft | 394 kts | 14° |
| 2026-02-21 06:06 | 41.30889 | 140.98736 | 27212 ft | 425 kts | 15° |
| 2026-02-21 06:07 | 41.41911 | 141.04154 | 24988 ft | 417 kts | 15° |
| 2026-02-21 06:07 | 41.52256 | 141.09256 | 22864 ft | 385 kts | 15° |
| 2026-02-21 06:07 | 41.62059 | 141.14111 | 20922 ft | 368 kts | 15° |
| 2026-02-21 06:07 | 41.71601 | 141.18868 | 19037 ft | 361 kts | 16° |
| 2026-02-21 06:08 | 41.80878 | 141.23568 | 17190 ft | 352 kts | 16° |
| 2026-02-21 06:08 | 41.89824 | 141.28107 | 15445 ft | 340 kts | 17° |
| 2026-02-21 06:08 | 41.98277 | 141.33522 | 13741 ft | 342 kts | 41° |
| 2026-02-21 06:08 | 42.04869 | 141.42125 | 12005 ft | 329 kts | 40° |
| 2026-02-21 06:09 | 42.11416 | 141.50563 | 10345 ft | 319 kts | 40° |
| 2026-02-21 06:09 | 42.19087 | 141.55787 | 8730 ft | 307 kts | 18° |
| 2026-02-21 06:09 | 42.26979 | 141.60106 | 7171 ft | 304 kts | 17° |
| 2026-02-21 06:09 | 42.30025 | 141.61767 | 6560 ft | 297 kts | 17° |
| 2026-02-21 06:10 | 42.31912 | 141.62798 | 6166 ft | 288 kts | 16° |
| 2026-02-21 06:10 | 42.33740 | 141.63793 | 5789 ft | 279 kts | 16° |
| 2026-02-21 06:10 | 42.35511 | 141.64757 | 5435 ft | 271 kts | 16° |
| 2026-02-21 06:10 | 42.37271 | 141.65713 | 5085 ft | 273 kts | 17° |
| 2026-02-21 06:11 | 42.39005 | 141.66658 | 4734 ft | 265 kts | 18° |
| 2026-02-21 06:11 | 42.40693 | 141.67583 | 4386 ft | 259 kts | 18° |
| 2026-02-21 06:11 | 42.42343 | 141.68486 | 4046 ft | 253 kts | 18° |
| 2026-02-21 06:11 | 42.43961 | 141.69369 | 3714 ft | 249 kts | 18° |
| 2026-02-21 06:12 | 42.45556 | 141.70244 | 3388 ft | 245 kts | 18° |
| 2026-02-21 06:12 | 42.47121 | 141.71100 | 3092 ft | 241 kts | 19° |
| 2026-02-21 06:12 | 42.48676 | 141.71950 | 2782 ft | 241 kts | 19° |
| 2026-02-21 06:12 | 42.50230 | 141.72798 | 2458 ft | 239 kts | 19° |
| 2026-02-21 06:13 | 42.51831 | 141.73299 | 2141 ft | 239 kts | 4° |
| 2026-02-21 06:13 | 42.53441 | 141.73275 | 2012 ft | 220 kts | 349° |
| 2026-02-21 06:13 | 42.54960 | 141.73011 | 2024 ft | 216 kts | 348° |
| 2026-02-21 06:13 | 42.56456 | 141.72745 | 2028 ft | 216 kts | 348° |
| 2026-02-21 06:14 | 42.57942 | 141.72481 | 2025 ft | 219 kts | 348° |
| 2026-02-21 06:14 | 42.59388 | 141.72228 | 2014 ft | 201 kts | 348° |
| 2026-02-21 06:14 | 42.60758 | 141.71988 | 2010 ft | 197 kts | 348° |
| 2026-02-21 06:14 | 42.63325 | 141.71530 | 2006 ft | 199 kts | 349° |
| 2026-02-21 06:15 | 42.67005 | 141.70889 | 1943 ft | 201 kts | 349° |
| 2026-02-21 06:15 | 42.68337 | 141.70655 | 1686 ft | 186 kts | 349° |
| 2026-02-21 06:15 | 42.69588 | 141.70434 | 1426 ft | 178 kts | 349° |
| 2026-02-21 06:15 | 42.72057 | 141.70003 | 915 ft | 173 kts | 352° |
| 2026-02-21 06:16 | 42.73547 | 141.69737 | 628 ft | 173 kts | 353° |
| 2026-02-21 06:16 | 42.74698 | 141.69541 | 391 ft | 158 kts | 353° |
| 2026-02-21 06:16 | 42.75773 | 141.69356 | 215 ft | 155 kts | 353° |
| 2026-02-21 06:16 | 42.76816 | 141.69167 | 84 ft | 141 kts | 352° |
| 2026-02-21 06:17 | 42.77584 | 141.69033 | 89 ft | 77 kts | 353° |
| 2026-02-21 06:17 | 42.77956 | 141.68968 | 88 ft | 46 kts | 352° |
| 2026-02-21 06:17 | 42.78251 | 141.68834 | 94 ft | 45 kts | 323° |
| 2026-02-21 06:17 | 42.78474 | 141.68603 | 94 ft | 35 kts | 322° |
| 2026-02-21 06:18 | 42.78621 | 141.68412 | 96 ft | 25 kts | 310° |
| 2026-02-21 06:18 | 42.78665 | 141.68299 | 97 ft | 0 kts | 285° |